sensor_id;sensor_type;location;lat;lon;timestamp;pressure;altitude;pressure_sealevel;temperature;humidity
74913;BME280;63878;55.624;37.304;2023-02-15T00:04:30;99243.22;;;-4.75;61.30
74913;BME280;63878;55.624;37.304;2023-02-15T00:14:30;99247.38;;;-4.69;61.47
74913;BME280;63878;55.624;37.304;2023-02-15T00:24:31;99257.63;;;-4.34;60.63
74913;BME280;63878;55.624;37.304;2023-02-15T00:34:32;99248.38;;;-4.75;61.07
74913;BME280;63878;55.624;37.304;2023-02-15T00:44:33;99267.38;;;-4.81;61.33
74913;BME280;63878;55.624;37.304;2023-02-15T00:54:33;99285.31;;;-4.76;60.13
74913;BME280;63878;55.624;37.304;2023-02-15T01:04:34;99261.81;;;-4.98;62.33
74913;BME280;63878;55.624;37.304;2023-02-15T01:14:35;99271.44;;;-5.06;62.55
74913;BME280;63878;55.624;37.304;2023-02-15T01:24:36;99272.72;;;-4.88;60.72
74913;BME280;63878;55.624;37.304;2023-02-15T01:34:36;99293.50;;;-4.96;61.39
74913;BME280;63878;55.624;37.304;2023-02-15T01:44:57;99294.47;;;-5.02;60.58
74913;BME280;63878;55.624;37.304;2023-02-15T01:54:59;99296.28;;;-5.05;61.60
74913;BME280;63878;55.624;37.304;2023-02-15T02:05:02;99305.16;;;-5.18;60.45
74913;BME280;63878;55.624;37.304;2023-02-15T02:15:06;99293.34;;;-5.29;60.09
74913;BME280;63878;55.624;37.304;2023-02-15T02:45:41;99319.25;;;-5.36;58.51
74913;BME280;63878;55.624;37.304;2023-02-15T03:05:58;99324.81;;;-5.16;58.08
74913;BME280;63878;55.624;37.304;2023-02-15T03:16:00;99338.94;;;-5.35;57.49
74913;BME280;63878;55.624;37.304;2023-02-15T03:26:05;99349.50;;;-5.49;57.81
74913;BME280;63878;55.624;37.304;2023-02-15T03:46:33;99340.34;;;-5.62;58.59
74913;BME280;63878;55.624;37.304;2023-02-15T03:56:38;99351.28;;;-5.51;57.89
74913;BME280;63878;55.624;37.304;2023-02-15T04:06:39;99351.69;;;-5.72;57.31
74913;BME280;63878;55.624;37.304;2023-02-15T04:16:40;99349.13;;;-5.72;56.49
74913;BME280;63878;55.624;37.304;2023-02-15T04:26:41;99348.28;;;-5.74;56.01
74913;BME280;63878;55.624;37.304;2023-02-15T04:36:42;99356.50;;;-5.56;54.64
74913;BME280;63878;55.624;37.304;2023-02-15T04:46:43;99365.78;;;-5.48;54.18
74913;BME280;63878;55.624;37.304;2023-02-15T04:56:44;99378.25;;;-5.29;54.59
74913;BME280;63878;55.624;37.304;2023-02-15T05:06:44;99370.88;;;-5.45;53.77
74913;BME280;63878;55.624;37.304;2023-02-15T05:16:45;99372.72;;;-5.52;54.80
74913;BME280;63878;55.624;37.304;2023-02-15T05:26:46;99387.28;;;-5.51;54.64
74913;BME280;63878;55.624;37.304;2023-02-15T05:36:46;99399.16;;;-5.92;55.29
74913;BME280;63878;55.624;37.304;2023-02-15T05:46:47;99403.00;;;-5.66;54.20
74913;BME280;63878;55.624;37.304;2023-02-15T05:56:48;99404.28;;;-5.44;55.10
74913;BME280;63878;55.624;37.304;2023-02-15T06:06:49;99408.25;;;-5.74;53.94
74913;BME280;63878;55.624;37.304;2023-02-15T06:16:50;99408.38;;;-6.31;55.64
74913;BME280;63878;55.624;37.304;2023-02-15T06:26:51;99406.13;;;-5.98;55.57
74913;BME280;63878;55.624;37.304;2023-02-15T06:36:52;99408.25;;;-5.74;55.04
74913;BME280;63878;55.624;37.304;2023-02-15T06:46:52;99423.22;;;-5.46;54.65
74913;BME280;63878;55.624;37.304;2023-02-15T06:56:53;99420.03;;;-5.61;54.85
74913;BME280;63878;55.624;37.304;2023-02-15T07:06:54;99436.25;;;-5.11;54.32
74913;BME280;63878;55.624;37.304;2023-02-15T07:16:55;99441.91;;;-5.38;52.65
74913;BME280;63878;55.624;37.304;2023-02-15T07:26:56;99431.66;;;-5.40;53.41
74913;BME280;63878;55.624;37.304;2023-02-15T07:36:57;99440.66;;;-5.64;53.18
74913;BME280;63878;55.624;37.304;2023-02-15T07:46:57;99425.41;;;-5.26;54.42
74913;BME280;63878;55.624;37.304;2023-02-15T07:57:00;99439.78;;;-5.16;55.39
74913;BME280;63878;55.624;37.304;2023-02-15T08:07:00;99432.84;;;-5.13;54.45
74913;BME280;63878;55.624;37.304;2023-02-15T08:17:01;99455.78;;;-4.60;53.33
74913;BME280;63878;55.624;37.304;2023-02-15T08:27:03;99456.88;;;-5.12;54.54
74913;BME280;63878;55.624;37.304;2023-02-15T08:37:05;99461.91;;;-4.64;53.98
74913;BME280;63878;55.624;37.304;2023-02-15T08:47:05;99475.09;;;-4.80;52.17
74913;BME280;63878;55.624;37.304;2023-02-15T08:57:06;99483.63;;;-4.37;51.59
74913;BME280;63878;55.624;37.304;2023-02-15T09:07:07;99484.44;;;-3.97;51.75
74913;BME280;63878;55.624;37.304;2023-02-15T09:17:07;99499.19;;;-4.03;50.62
74913;BME280;63878;55.624;37.304;2023-02-15T09:27:08;99496.56;;;-4.39;50.57
74913;BME280;63878;55.624;37.304;2023-02-15T09:37:09;99490.47;;;-4.77;52.36
74913;BME280;63878;55.624;37.304;2023-02-15T09:57:29;99501.88;;;-4.08;50.16
74913;BME280;63878;55.624;37.304;2023-02-15T10:07:56;99518.16;;;-4.06;52.01
74913;BME280;63878;55.624;37.304;2023-02-15T10:28:28;99527.81;;;-4.15;51.58
74913;BME280;63878;55.624;37.304;2023-02-15T10:38:46;99535.28;;;-4.03;51.16
74913;BME280;63878;55.624;37.304;2023-02-15T10:59:30;99562.13;;;-4.12;53.62
74913;BME280;63878;55.624;37.304;2023-02-15T11:09:43;99575.22;;;-4.64;54.18
74913;BME280;63878;55.624;37.304;2023-02-15T11:30:15;99589.47;;;-4.47;55.37
74913;BME280;63878;55.624;37.304;2023-02-15T11:40:22;99594.00;;;-4.58;55.58
74913;BME280;63878;55.624;37.304;2023-02-15T11:50:27;99598.44;;;-4.67;56.33
74913;BME280;63878;55.624;37.304;2023-02-15T12:00:40;99611.28;;;-5.12;57.54
74913;BME280;63878;55.624;37.304;2023-02-15T12:10:58;99614.91;;;-4.30;58.35
74913;BME280;63878;55.624;37.304;2023-02-15T12:21:25;99613.28;;;-4.35;55.31
74913;BME280;63878;55.624;37.304;2023-02-15T12:31:38;99613.28;;;-4.35;56.62
74913;BME280;63878;55.624;37.304;2023-02-15T12:42:14;99640.75;;;-4.79;53.95
74913;BME280;63878;55.624;37.304;2023-02-15T12:52:23;99654.47;;;-4.79;55.62
74913;BME280;63878;55.624;37.304;2023-02-15T13:02:43;99658.69;;;-4.75;54.29
74913;BME280;63878;55.624;37.304;2023-02-15T13:12:46;99664.38;;;-4.57;55.41
74913;BME280;63878;55.624;37.304;2023-02-15T13:22:49;99674.47;;;-4.45;54.07
74913;BME280;63878;55.624;37.304;2023-02-15T13:33:03;99689.03;;;-4.93;54.79
74913;BME280;63878;55.624;37.304;2023-02-15T14:34:54;99739.31;;;-5.25;54.52
74913;BME280;63878;55.624;37.304;2023-02-15T14:45:06;99743.22;;;-4.99;54.51
74913;BME280;63878;55.624;37.304;2023-02-15T14:55:36;99766.41;;;-5.01;54.98
74913;BME280;63878;55.624;37.304;2023-02-15T15:05:48;99775.28;;;-4.65;55.27
74913;BME280;63878;55.624;37.304;2023-02-15T15:15:52;99778.28;;;-4.40;54.39
74913;BME280;63878;55.624;37.304;2023-02-15T15:26:39;99768.72;;;-4.32;55.21
74913;BME280;63878;55.624;37.304;2023-02-15T15:36:53;99777.16;;;-4.73;54.27
74913;BME280;63878;55.624;37.304;2023-02-15T15:57:03;99799.19;;;-4.57;54.08
74913;BME280;63878;55.624;37.304;2023-02-15T16:17:24;99824.16;;;-4.60;54.10
74913;BME280;63878;55.624;37.304;2023-02-15T16:27:42;99816.22;;;-4.48;54.11
74913;BME280;63878;55.624;37.304;2023-02-15T16:37:43;99827.63;;;-4.63;52.48
74913;BME280;63878;55.624;37.304;2023-02-15T16:47:46;99834.59;;;-4.69;53.68
74913;BME280;63878;55.624;37.304;2023-02-15T16:57:49;99821.59;;;-4.62;53.90
74913;BME280;63878;55.624;37.304;2023-02-15T17:18:20;99834.81;;;-4.83;52.79
74913;BME280;63878;55.624;37.304;2023-02-15T17:28:28;99846.72;;;-5.39;54.15
74913;BME280;63878;55.624;37.304;2023-02-15T17:38:29;99854.50;;;-5.48;52.95
74913;BME280;63878;55.624;37.304;2023-02-15T17:48:33;99846.78;;;-5.47;55.84
74913;BME280;63878;55.624;37.304;2023-02-15T17:58:35;99848.69;;;-6.58;55.73
74913;BME280;63878;55.624;37.304;2023-02-15T18:08:36;99850.66;;;-5.14;54.86
74913;BME280;63878;55.624;37.304;2023-02-15T18:18:37;99854.00;;;-4.46;55.73
74913;BME280;63878;55.624;37.304;2023-02-15T18:28:39;99852.09;;;-4.34;56.70
74913;BME280;63878;55.624;37.304;2023-02-15T18:38:39;99848.78;;;-5.72;53.92
74913;BME280;63878;55.624;37.304;2023-02-15T18:48:41;99849.13;;;-6.08;55.95
74913;BME280;63878;55.624;37.304;2023-02-15T18:58:42;99866.56;;;-6.43;56.33
74913;BME280;63878;55.624;37.304;2023-02-15T19:08:44;99864.16;;;-6.66;56.92
74913;BME280;63878;55.624;37.304;2023-02-15T19:18:46;99859.19;;;-6.92;57.92
74913;BME280;63878;55.624;37.304;2023-02-15T19:28:47;99854.00;;;-6.88;57.35
74913;BME280;63878;55.624;37.304;2023-02-15T19:38:51;99866.97;;;-7.10;57.48
74913;BME280;63878;55.624;37.304;2023-02-15T19:48:53;99861.91;;;-7.24;58.24
74913;BME280;63878;55.624;37.304;2023-02-15T19:58:54;99861.88;;;-7.22;57.87
74913;BME280;63878;55.624;37.304;2023-02-15T20:08:55;99860.22;;;-7.31;59.31
74913;BME280;63878;55.624;37.304;2023-02-15T20:18:56;99852.53;;;-7.35;58.88
74913;BME280;63878;55.624;37.304;2023-02-15T20:28:57;99856.94;;;-7.69;60.71
74913;BME280;63878;55.624;37.304;2023-02-15T20:39:01;99856.03;;;-7.50;61.17
74913;BME280;63878;55.624;37.304;2023-02-15T20:49:02;99857.69;;;-7.34;60.87
74913;BME280;63878;55.624;37.304;2023-02-15T20:59:11;99852.63;;;-7.52;61.29
74913;BME280;63878;55.624;37.304;2023-02-15T21:09:19;99856.94;;;-7.66;61.31
74913;BME280;63878;55.624;37.304;2023-02-15T21:29:36;99856.06;;;-7.61;62.32
74913;BME280;63878;55.624;37.304;2023-02-15T21:39:37;99846.66;;;-7.53;62.53
74913;BME280;63878;55.624;37.304;2023-02-15T21:49:38;99845.78;;;-7.56;61.39
74913;BME280;63878;55.624;37.304;2023-02-15T21:59:39;99860.38;;;-7.67;61.61
74913;BME280;63878;55.624;37.304;2023-02-15T22:09:40;99848.38;;;-7.61;61.71
74913;BME280;63878;55.624;37.304;2023-02-15T22:19:44;99856.94;;;-7.71;62.32
74913;BME280;63878;55.624;37.304;2023-02-15T22:29:47;99848.38;;;-7.64;61.40
74913;BME280;63878;55.624;37.304;2023-02-15T22:39:47;99861.28;;;-8.10;62.76
74913;BME280;63878;55.624;37.304;2023-02-15T22:49:48;99841.63;;;-8.05;62.31
74913;BME280;63878;55.624;37.304;2023-02-15T22:59:49;99851.00;;;-7.94;62.57
74913;BME280;63878;55.624;37.304;2023-02-15T23:09:50;99849.28;;;-7.89;62.34
74913;BME280;63878;55.624;37.304;2023-02-15T23:19:51;99851.00;;;-7.94;62.17
74913;BME280;63878;55.624;37.304;2023-02-15T23:29:52;99843.31;;;-7.84;62.08
74913;BME280;63878;55.624;37.304;2023-02-15T23:39:53;99836.47;;;-7.82;62.88
74913;BME280;63878;55.624;37.304;2023-02-15T23:49:54;99832.22;;;-7.86;62.48
74913;BME280;63878;55.624;37.304;2023-02-15T23:59:54;99833.97;;;-8.23;63.45
